createdAt,value
2023-02-16T00:01:26.736Z,28.88
2023-02-16T00:03:56.105Z,30.20
2023-02-16T00:06:24.597Z,28.67
2023-02-16T00:08:53.959Z,29.60
2023-02-16T00:11:42.502Z,29.48
2023-02-16T00:14:13.138Z,29.67
2023-02-16T00:16:41.238Z,31.40
2023-02-16T00:19:19.170Z,30.15
2023-02-16T00:21:47.108Z,30.08
2023-02-16T00:24:15.163Z,30.83
2023-02-16T00:26:43.921Z,29.88
2023-02-16T00:29:18.009Z,30.00
2023-02-16T00:31:45.960Z,29.98
2023-02-16T00:34:36.119Z,31.38
2023-02-16T00:37:06.034Z,31.60
2023-02-16T00:39:34.835Z,30.05
2023-02-16T00:42:05.442Z,29.40
2023-02-16T00:44:41.173Z,30.00
2023-02-16T00:47:19.985Z,30.60
2023-02-16T00:49:48.724Z,31.92
2023-02-16T00:52:37.704Z,32.33
2023-02-16T00:55:09.419Z,31.92
2023-02-16T00:57:41.252Z,29.55
2023-02-16T01:00:17.994Z,31.45
2023-02-16T01:02:48.052Z,31.55
2023-02-16T01:05:16.290Z,31.65
2023-02-16T01:08:01.531Z,31.65
2023-02-16T01:10:48.476Z,30.80
2023-02-16T01:13:16.828Z,30.25
2023-02-16T01:15:46.350Z,30.75
2023-02-16T01:18:14.949Z,31.60
2023-02-16T01:20:44.359Z,31.73
2023-02-16T01:23:12.648Z,31.85
2023-02-16T01:25:42.909Z,32.85
2023-02-16T01:28:19.847Z,32.22
2023-02-16T01:30:49.348Z,32.85
2023-02-16T01:33:17.181Z,31.75
2023-02-16T01:35:45.845Z,31.25
2023-02-16T01:38:18.845Z,32.13
2023-02-16T01:40:56.502Z,30.40
2023-02-16T01:43:29.807Z,32.28
2023-02-16T01:46:04.404Z,31.40
2023-02-16T01:48:33.666Z,31.23
2023-02-16T01:51:07.968Z,32.80
2023-02-16T01:53:40.936Z,30.67
2023-02-16T01:56:19.458Z,32.55
2023-02-16T01:58:51.125Z,31.50
2023-02-16T02:01:38.523Z,31.30
2023-02-16T02:04:30.790Z,30.63
2023-02-16T02:06:58.646Z,32.95
2023-02-16T02:09:35.129Z,30.80
2023-02-16T02:12:11.736Z,31.65
2023-02-16T02:14:41.524Z,31.52
2023-02-16T02:17:16.147Z,30.17
2023-02-16T02:19:53.097Z,32.97
2023-02-16T02:23:04.865Z,32.05
2023-02-16T02:25:53.510Z,31.27
2023-02-16T02:28:28.623Z,30.30
2023-02-16T02:31:06.909Z,31.58
2023-02-16T02:33:48.502Z,31.05
2023-02-16T02:36:29.597Z,31.30
2023-02-16T02:39:13.378Z,31.45
2023-02-16T02:42:07.684Z,29.80
2023-02-16T02:44:55.830Z,31.60
2023-02-16T02:47:23.796Z,31.92
2023-02-16T02:49:52.688Z,30.20
2023-02-16T02:52:21.347Z,31.55
2023-02-16T02:55:08.453Z,31.23
2023-02-16T02:57:58.666Z,30.73
2023-02-16T03:00:46.707Z,32.28
2023-02-16T03:03:21.940Z,31.00
2023-02-16T03:05:54.248Z,30.67
2023-02-16T03:08:25.077Z,29.92
2023-02-16T03:11:14.254Z,30.65
2023-02-16T03:13:47.162Z,31.08
2023-02-16T03:16:23.203Z,30.90
2023-02-16T03:19:08.771Z,30.58
2023-02-16T03:21:54.580Z,31.90
2023-02-16T03:24:45.186Z,30.80
2023-02-16T03:27:32.800Z,30.98
2023-02-16T03:30:02.403Z,30.60
2023-02-16T03:32:31.819Z,30.50
2023-02-16T03:34:59.675Z,31.38
2023-02-16T03:37:27.808Z,32.17
2023-02-16T03:40:13.268Z,31.75
2023-02-16T03:42:41.046Z,30.83
2023-02-16T03:45:09.713Z,31.70
2023-02-16T03:47:38.840Z,30.20
2023-02-16T03:50:08.049Z,31.25
2023-02-16T03:52:35.847Z,31.63
2023-02-16T03:55:03.646Z,32.55
2023-02-16T03:57:31.554Z,32.05
2023-02-16T03:59:59.776Z,31.83
2023-02-16T04:02:29.523Z,31.73
2023-02-16T04:04:59.285Z,31.75
2023-02-16T04:07:27.100Z,31.58
2023-02-16T04:09:54.885Z,31.65
2023-02-16T04:12:37.678Z,31.52
2023-02-16T04:15:07.246Z,30.20
2023-02-16T04:17:35.171Z,30.83
2023-02-16T04:20:04.942Z,32.42
2023-02-16T04:22:32.808Z,33.15
2023-02-16T04:25:00.683Z,33.53
2023-02-16T04:27:28.504Z,30.73
2023-02-16T04:29:56.447Z,31.13
2023-02-16T04:32:24.280Z,31.85
2023-02-16T04:34:52.194Z,33.42
2023-02-16T04:37:21.401Z,32.08
2023-02-16T04:39:49.269Z,33.45
2023-02-16T04:42:17.202Z,32.50
2023-02-16T04:44:45.036Z,31.90
2023-02-16T04:47:12.971Z,32.42
2023-02-16T04:49:40.732Z,33.28
2023-02-16T04:52:08.527Z,30.95
2023-02-16T04:54:37.710Z,32.42
2023-02-16T04:57:05.570Z,31.88
2023-02-16T04:59:33.341Z,31.52
2023-02-16T05:02:01.309Z,31.75
2023-02-16T05:04:29.267Z,32.30
2023-02-16T05:06:57.424Z,30.67
2023-02-16T05:09:25.287Z,30.33
2023-02-16T05:12:12.177Z,32.67
2023-02-16T05:14:42.906Z,32.35
2023-02-16T05:17:12.795Z,33.05
2023-02-16T05:19:41.332Z,32.92
2023-02-16T05:22:11.187Z,32.38
2023-02-16T05:24:39.214Z,32.95
2023-02-16T05:27:12.668Z,33.60
2023-02-16T05:29:40.419Z,32.55
2023-02-16T05:32:08.237Z,32.55
2023-02-16T05:34:36.182Z,33.65
2023-02-16T05:37:04.083Z,33.03
2023-02-16T05:39:31.915Z,34.60
2023-02-16T05:42:00.081Z,32.83
2023-02-16T05:44:29.588Z,34.83
2023-02-16T05:46:57.399Z,33.40
2023-02-16T05:49:25.674Z,32.22
2023-02-16T05:51:53.484Z,33.58
2023-02-16T05:54:21.270Z,32.92
2023-02-16T05:56:51.930Z,33.65
2023-02-16T05:59:20.141Z,33.65
2023-02-16T06:01:51.843Z,33.22
2023-02-16T06:04:21.455Z,34.45
2023-02-16T06:06:49.221Z,34.72
2023-02-16T06:09:17.360Z,33.58
2023-02-16T06:11:45.285Z,34.13
2023-02-16T06:14:16.045Z,34.70
2023-02-16T06:16:45.868Z,34.08
2023-02-16T06:19:15.795Z,33.60
2023-02-16T06:21:44.002Z,34.97
2023-02-16T06:24:14.040Z,33.17
2023-02-16T06:26:42.274Z,34.83
2023-02-16T06:29:10.512Z,34.05
2023-02-16T06:31:38.544Z,34.35
2023-02-16T06:34:06.994Z,35.50
2023-02-16T06:36:36.283Z,33.13
2023-02-16T06:39:04.835Z,34.15
2023-02-16T06:41:35.548Z,33.97
2023-02-16T06:44:05.397Z,32.60
2023-02-16T06:46:33.885Z,33.63
2023-02-16T06:49:02.172Z,34.47
2023-02-16T06:51:30.399Z,33.75
2023-02-16T06:53:59.914Z,33.63
2023-02-16T06:56:27.941Z,34.28
2023-02-16T06:58:55.768Z,35.20
2023-02-16T07:01:25.890Z,34.65
2023-02-16T07:03:55.139Z,35.25
2023-02-16T07:06:24.273Z,34.00
2023-02-16T07:08:53.006Z,33.53
2023-02-16T07:11:22.843Z,34.13
2023-02-16T07:13:51.316Z,34.25
2023-02-16T07:16:19.233Z,35.05
2023-02-16T07:18:47.400Z,34.10
2023-02-16T07:21:15.844Z,34.95
2023-02-16T07:23:44.186Z,34.22
2023-02-16T07:26:12.069Z,33.50
2023-02-16T07:28:42.655Z,33.53
2023-02-16T07:31:13.352Z,34.35
2023-02-16T07:33:41.249Z,34.53
2023-02-16T07:36:10.883Z,34.47
2023-02-16T07:38:39.096Z,35.25
2023-02-16T07:41:09.552Z,35.28
2023-02-16T07:43:38.526Z,35.00
2023-02-16T07:46:07.756Z,34.65
2023-02-16T07:48:36.155Z,34.80
2023-02-16T07:51:04.726Z,34.47
2023-02-16T07:53:32.947Z,34.55
2023-02-16T07:56:00.865Z,34.92
2023-02-16T07:58:28.798Z,33.63
2023-02-16T08:00:57.952Z,34.13
2023-02-16T08:03:27.265Z,35.83
2023-02-16T08:05:55.107Z,34.47
2023-02-16T08:08:22.885Z,33.10
2023-02-16T08:10:50.598Z,34.38
2023-02-16T08:13:18.400Z,34.38
2023-02-16T08:15:46.468Z,34.42
2023-02-16T08:18:15.228Z,34.83
2023-02-16T08:21:01.500Z,35.08
2023-02-16T08:23:31.444Z,33.72
2023-02-16T08:25:59.621Z,34.28
2023-02-16T08:28:28.992Z,33.55
2023-02-16T08:30:57.120Z,32.45
2023-02-16T08:33:25.100Z,34.33
2023-02-16T08:35:54.362Z,34.33
2023-02-16T08:38:22.771Z,33.47
2023-02-16T08:40:50.694Z,31.67
2023-02-16T08:43:18.819Z,34.30
2023-02-16T08:45:47.468Z,33.90
2023-02-16T08:48:15.481Z,34.35
2023-02-16T08:50:47.008Z,33.10
2023-02-16T08:53:16.221Z,33.67
2023-02-16T08:55:43.989Z,33.00
2023-02-16T08:58:11.810Z,34.33
2023-02-16T09:00:39.542Z,32.85
2023-02-16T09:03:07.640Z,33.65
2023-02-16T09:05:35.492Z,33.20
2023-02-16T09:08:03.369Z,33.70
2023-02-16T09:10:33.101Z,32.72
2023-02-16T09:13:00.897Z,33.38
2023-02-16T09:15:28.817Z,32.15
2023-02-16T09:17:56.901Z,32.85
2023-02-16T09:20:24.796Z,33.85
2023-02-16T09:22:52.629Z,34.35
2023-02-16T09:25:20.457Z,34.88
2023-02-16T09:27:49.626Z,34.17
2023-02-16T09:30:18.624Z,34.50
2023-02-16T09:32:46.474Z,34.03
2023-02-16T09:35:14.222Z,34.25
2023-02-16T09:37:42.041Z,31.25
2023-02-16T09:40:13.642Z,34.03
2023-02-16T09:42:58.791Z,35.05
2023-02-16T09:45:30.967Z,33.72
2023-02-16T09:47:59.617Z,35.35
2023-02-16T09:50:53.952Z,34.55
2023-02-16T09:53:23.846Z,33.92
2023-02-16T09:55:59.525Z,34.35
2023-02-16T09:58:37.518Z,35.25
2023-02-16T10:01:18.046Z,36.05
2023-02-16T10:03:55.693Z,34.63
2023-02-16T10:06:37.269Z,34.47
2023-02-16T10:09:09.386Z,34.17
2023-02-16T10:11:46.668Z,35.20
2023-02-16T10:14:24.467Z,36.25
2023-02-16T10:16:57.756Z,32.97
2023-02-16T10:19:31.284Z,35.40
2023-02-16T10:22:04.414Z,35.03
2023-02-16T10:24:41.225Z,34.70
2023-02-16T10:27:16.239Z,33.88
2023-02-16T10:29:45.475Z,35.00
2023-02-16T10:32:26.088Z,35.33
2023-02-16T10:35:05.411Z,34.03
2023-02-16T10:37:49.984Z,35.53
2023-02-16T10:40:35.445Z,35.53
2023-02-16T10:43:12.382Z,33.38
2023-02-16T10:45:51.972Z,34.40
2023-02-16T10:48:21.635Z,36.03
2023-02-16T10:50:58.449Z,35.88
2023-02-16T10:53:40.574Z,32.35
2023-02-16T10:56:45.230Z,35.90
2023-02-16T10:59:17.737Z,34.70
2023-02-16T11:01:49.656Z,33.33
2023-02-16T11:04:39.664Z,35.75
2023-02-16T11:07:10.069Z,33.88
2023-02-16T11:09:38.734Z,34.83
2023-02-16T11:12:17.869Z,35.20
2023-02-16T11:14:51.452Z,34.95
2023-02-16T11:17:23.721Z,32.50
2023-02-16T11:19:55.106Z,33.30
2023-02-16T11:22:29.160Z,33.92
2023-02-16T11:24:59.295Z,33.72
2023-02-16T11:27:27.458Z,34.05
2023-02-16T11:30:22.549Z,34.83
2023-02-16T11:32:52.685Z,34.22
2023-02-16T11:35:20.587Z,34.78
2023-02-16T11:37:48.639Z,34.42
2023-02-16T11:40:23.182Z,36.80
2023-02-16T11:42:52.795Z,35.28
2023-02-16T11:45:30.301Z,35.58
2023-02-16T11:48:04.057Z,34.78
2023-02-16T11:50:33.522Z,34.08
2023-02-16T11:53:16.493Z,34.38
2023-02-16T11:58:18.866Z,34.17
2023-02-16T12:01:01.588Z,34.15
2023-02-16T12:04:04.489Z,32.70
2023-02-16T12:06:47.117Z,35.25
2023-02-16T12:09:26.932Z,33.72
2023-02-16T12:12:04.731Z,31.23
2023-02-16T12:14:43.557Z,35.38
2023-02-16T12:17:27.810Z,35.08
2023-02-16T12:20:05.373Z,35.45
2023-02-16T12:22:39.979Z,35.00
2023-02-16T12:25:23.704Z,34.33
2023-02-16T12:27:55.886Z,32.58
2023-02-16T12:30:36.873Z,32.75
2023-02-16T12:33:26.746Z,33.78
2023-02-16T12:36:20.161Z,33.03
2023-02-16T12:38:58.184Z,31.38
2023-02-16T12:41:40.070Z,31.80
2023-02-16T12:46:44.759Z,28.05
2023-02-16T12:49:17.751Z,32.55
2023-02-16T12:51:51.615Z,30.52
2023-02-16T12:54:25.879Z,32.00
2023-02-16T12:56:59.172Z,33.05
2023-02-16T12:59:36.563Z,31.02
2023-02-16T13:02:13.842Z,27.83
2023-02-16T13:04:48.099Z,32.63
2023-02-16T13:07:22.739Z,29.52
2023-02-16T13:09:59.648Z,29.83
2023-02-16T13:12:33.235Z,29.05
2023-02-16T13:15:14.297Z,29.45
2023-02-16T13:17:48.160Z,30.35
2023-02-16T13:20:19.785Z,28.60
2023-02-16T13:23:31.358Z,28.35
2023-02-16T13:26:31.588Z,27.67
2023-02-16T13:29:47.605Z,28.10
2023-02-16T13:32:38.585Z,28.50
2023-02-16T13:35:37.274Z,28.05
2023-02-16T13:38:21.248Z,26.45
2023-02-16T13:41:10.394Z,26.08
2023-02-16T13:43:43.395Z,26.80
2023-02-16T13:46:17.429Z,24.25
2023-02-16T13:48:49.680Z,25.98
2023-02-16T13:51:20.759Z,24.52
2023-02-16T13:53:55.720Z,24.90
2023-02-16T13:56:36.110Z,24.40
2023-02-16T13:59:41.115Z,24.80
2023-02-16T14:02:13.951Z,23.33
2023-02-16T14:05:04.691Z,23.13
2023-02-16T14:07:35.955Z,21.90
2023-02-16T14:10:03.799Z,20.80
2023-02-16T14:12:38.598Z,22.58
2023-02-16T14:15:18.121Z,22.27
2023-02-16T14:17:47.222Z,22.10
2023-02-16T14:20:30.541Z,21.75
2023-02-16T14:23:00.676Z,21.70
2023-02-16T14:25:37.822Z,22.27
2023-02-16T14:28:22.873Z,22.88
2023-02-16T14:30:54.186Z,22.30
2023-02-16T14:33:30.576Z,22.10
2023-02-16T14:36:13.356Z,22.50
2023-02-16T14:38:47.093Z,21.80
2023-02-16T14:41:25.998Z,22.52
2023-02-16T14:44:12.892Z,21.98
2023-02-16T14:46:52.990Z,20.92
2023-02-16T14:50:03.833Z,21.50
2023-02-16T14:53:01.716Z,20.55
2023-02-16T14:55:48.553Z,20.02
2023-02-16T14:58:27.743Z,19.92
2023-02-16T15:01:04.035Z,20.00
2023-02-16T15:03:41.940Z,18.52
2023-02-16T15:06:20.936Z,17.38
2023-02-16T15:08:57.312Z,17.88
2023-02-16T15:11:31.428Z,17.42
2023-02-16T15:14:12.062Z,16.10
2023-02-16T15:16:42.932Z,15.77
2023-02-16T15:19:17.830Z,15.25
2023-02-16T15:21:45.706Z,15.63
2023-02-16T15:24:23.145Z,15.32
2023-02-16T15:26:57.935Z,16.33
2023-02-16T15:29:28.225Z,16.65
2023-02-16T15:31:59.848Z,16.55
2023-02-16T15:34:30.770Z,18.50
2023-02-16T15:36:58.587Z,18.10
2023-02-16T15:39:42.601Z,18.85
2023-02-16T15:42:23.648Z,18.38
2023-02-16T15:44:52.029Z,19.98
2023-02-16T15:47:24.848Z,19.20
2023-02-16T15:49:53.977Z,20.13
2023-02-16T15:52:29.154Z,19.95
2023-02-16T15:54:57.262Z,20.20
2023-02-16T15:57:30.879Z,20.67
2023-02-16T16:00:00.365Z,22.50
2023-02-16T16:02:37.570Z,20.67
2023-02-16T16:05:09.451Z,20.90
2023-02-16T16:07:39.947Z,21.65
2023-02-16T16:10:16.616Z,22.42
2023-02-16T16:12:45.727Z,22.33
2023-02-16T16:15:18.562Z,23.77
2023-02-16T16:17:47.895Z,20.25
2023-02-16T16:20:27.225Z,23.17
2023-02-16T16:23:00.026Z,22.88
2023-02-16T16:25:43.194Z,24.85
2023-02-16T16:28:14.658Z,24.15
2023-02-16T16:30:45.168Z,23.50
2023-02-16T16:33:16.147Z,23.75
2023-02-16T16:35:47.098Z,23.48
2023-02-16T16:38:26.754Z,22.88
2023-02-16T16:40:55.894Z,24.17
2023-02-16T16:43:27.767Z,25.17
2023-02-16T16:46:03.787Z,23.70
2023-02-16T16:48:36.513Z,23.77
2023-02-16T16:51:12.462Z,25.15
2023-02-16T16:53:52.094Z,25.90
2023-02-16T16:56:21.421Z,24.58
2023-02-16T16:58:50.495Z,24.48
2023-02-16T17:01:19.223Z,24.65
2023-02-16T17:03:48.849Z,25.65
2023-02-16T17:06:17.633Z,24.55
2023-02-16T17:08:46.498Z,27.27
2023-02-16T17:11:21.723Z,26.67
2023-02-16T17:13:49.588Z,25.77
2023-02-16T17:16:21.808Z,27.10
2023-02-16T17:18:50.994Z,26.67
2023-02-16T17:21:19.389Z,28.80
2023-02-16T17:23:52.784Z,28.52
2023-02-16T17:26:21.647Z,28.80
2023-02-16T17:28:50.164Z,26.90
2023-02-16T17:31:18.157Z,29.88
2023-02-16T17:33:46.016Z,26.15
2023-02-16T17:36:16.571Z,28.90
2023-02-16T17:38:44.769Z,29.52
2023-02-16T17:41:20.049Z,28.63
2023-02-16T17:43:47.849Z,28.75
2023-02-16T17:46:16.517Z,29.77
2023-02-16T17:48:44.636Z,30.92
2023-02-16T17:51:17.015Z,31.10
2023-02-16T17:53:44.882Z,31.33
2023-02-16T17:56:14.381Z,33.17
2023-02-16T17:58:42.657Z,30.92
2023-02-16T18:01:13.522Z,31.23
2023-02-16T18:03:41.546Z,30.63
2023-02-16T18:06:12.644Z,31.50
2023-02-16T18:11:09.842Z,28.70
2023-02-16T18:13:37.955Z,29.45
2023-02-16T18:16:07.915Z,29.27
2023-02-16T18:18:39.136Z,29.88
2023-02-16T18:21:07.787Z,29.17
2023-02-16T18:23:35.684Z,29.40
2023-02-16T18:26:06.169Z,30.77
2023-02-16T18:28:35.934Z,29.95
2023-02-16T18:31:06.935Z,30.20
2023-02-16T18:36:03.457Z,28.83
2023-02-16T18:38:31.783Z,28.38
2023-02-16T18:40:59.653Z,29.23
2023-02-16T18:43:28.990Z,29.17
2023-02-16T18:45:56.847Z,29.70
2023-02-16T18:48:25.185Z,28.67
2023-02-16T18:50:52.996Z,29.10
2023-02-16T18:53:20.811Z,26.17
2023-02-16T18:55:48.655Z,27.80
2023-02-16T18:58:16.595Z,28.35
2023-02-16T19:00:45.770Z,26.55
2023-02-16T19:03:13.636Z,26.38
2023-02-16T19:05:41.552Z,27.05
2023-02-16T19:08:09.458Z,28.38
2023-02-16T19:10:37.274Z,28.98
2023-02-16T19:13:07.028Z,31.65
2023-02-16T19:15:35.399Z,29.02
2023-02-16T19:18:04.892Z,29.95
2023-02-16T19:20:32.685Z,30.42
2023-02-16T19:23:00.487Z,29.70
2023-02-16T19:25:29.781Z,28.45
2023-02-16T19:27:57.617Z,26.58
2023-02-16T19:30:25.493Z,25.70
2023-02-16T19:32:53.328Z,26.75
2023-02-16T19:35:22.606Z,28.20
2023-02-16T19:37:51.677Z,27.58
2023-02-16T19:40:19.831Z,26.33
2023-02-16T19:42:47.686Z,27.63
2023-02-16T19:45:15.458Z,25.98
2023-02-16T19:47:43.254Z,27.08
2023-02-16T19:50:11.459Z,28.75
2023-02-16T19:52:40.619Z,27.35
2023-02-16T19:55:10.634Z,26.45
2023-02-16T19:57:39.343Z,26.13
2023-02-16T20:00:11.415Z,23.50
2023-02-16T20:02:42.189Z,24.42
2023-02-16T20:05:11.154Z,24.67
2023-02-16T20:07:40.548Z,23.85
2023-02-16T20:10:08.762Z,23.05
2023-02-16T20:12:36.593Z,22.50
2023-02-16T20:15:04.497Z,22.23
2023-02-16T20:17:32.299Z,21.27
2023-02-16T20:20:00.412Z,20.00
2023-02-16T20:22:28.720Z,20.10
2023-02-16T20:24:57.893Z,20.15
2023-02-16T20:27:27.792Z,20.52
2023-02-16T20:29:55.677Z,20.15
2023-02-16T20:32:25.294Z,19.38
2023-02-16T20:34:53.127Z,20.17
2023-02-16T20:37:21.789Z,19.42
2023-02-16T20:39:49.673Z,18.88
2023-02-16T20:42:18.838Z,19.13
2023-02-16T20:44:46.646Z,17.48
2023-02-16T20:47:14.647Z,18.50
2023-02-16T20:49:42.555Z,17.30
2023-02-16T20:52:10.751Z,17.85
2023-02-16T20:54:39.084Z,16.60
2023-02-16T20:57:15.491Z,15.82
2023-02-16T20:59:50.720Z,16.15
2023-02-16T21:02:18.682Z,14.50
2023-02-16T21:04:46.479Z,15.95
2023-02-16T21:07:14.294Z,16.27
2023-02-16T21:09:42.506Z,15.90
2023-02-16T21:12:10.434Z,14.90
2023-02-16T21:14:38.232Z,15.85
2023-02-16T21:17:07.394Z,13.93
2023-02-16T21:19:35.187Z,13.43
2023-02-16T21:22:13.761Z,13.88
2023-02-16T21:24:42.159Z,13.48
2023-02-16T21:27:10.288Z,13.63
2023-02-16T21:29:38.822Z,14.20
2023-02-16T21:32:08.042Z,13.45
2023-02-16T21:34:36.295Z,14.07
2023-02-16T21:37:05.338Z,13.70
2023-02-16T21:39:50.455Z,13.93
2023-02-16T21:42:18.245Z,13.43
2023-02-16T21:45:06.049Z,14.50
2023-02-16T21:47:52.790Z,13.30
2023-02-16T21:50:20.575Z,12.93
2023-02-16T21:52:48.386Z,12.18
2023-02-16T21:55:33.701Z,12.25
2023-02-16T21:58:01.596Z,12.77
2023-02-16T22:00:29.550Z,11.93
2023-02-16T22:02:58.941Z,11.60
2023-02-16T22:05:26.823Z,12.20
2023-02-16T22:07:54.593Z,12.65
2023-02-16T22:10:22.422Z,12.20
2023-02-16T22:12:50.174Z,11.68
2023-02-16T22:15:18.318Z,11.63
2023-02-16T22:17:46.112Z,11.45
2023-02-16T22:20:15.397Z,10.23
2023-02-16T22:22:43.432Z,10.55
2023-02-16T22:25:11.696Z,9.23
2023-02-16T22:27:39.787Z,10.00
2023-02-16T22:30:13.289Z,9.38
2023-02-16T22:32:41.140Z,8.75
2023-02-16T22:35:09.474Z,8.50
2023-02-16T22:37:38.672Z,8.93
2023-02-16T22:40:07.606Z,8.57
2023-02-16T22:42:36.190Z,7.82
2023-02-16T22:45:04.328Z,8.43
2023-02-16T22:47:32.167Z,8.35
2023-02-16T22:50:00.199Z,8.88
2023-02-16T22:52:28.278Z,8.50
2023-02-16T22:54:58.366Z,8.25
2023-02-16T22:57:26.122Z,8.55
2023-02-16T22:59:53.878Z,9.02
2023-02-16T23:02:21.616Z,8.63
2023-02-16T23:04:49.420Z,9.43
2023-02-16T23:07:17.235Z,10.07
2023-02-16T23:09:45.062Z,9.00
2023-02-16T23:12:14.233Z,9.70
2023-02-16T23:14:42.063Z,9.02
2023-02-16T23:17:09.796Z,9.75
2023-02-16T23:19:37.655Z,10.15
2023-02-16T23:22:05.418Z,10.38
2023-02-16T23:24:33.592Z,10.45
2023-02-16T23:27:01.510Z,10.18
2023-02-16T23:29:30.683Z,10.35
2023-02-16T23:31:58.458Z,9.90
2023-02-16T23:34:26.227Z,11.07
2023-02-16T23:36:54.020Z,11.20
2023-02-16T23:39:21.810Z,10.60
2023-02-16T23:41:49.600Z,11.07
2023-02-16T23:44:17.454Z,10.85
2023-02-16T23:46:46.570Z,10.25
2023-02-16T23:49:14.420Z,10.93
2023-02-16T23:51:42.179Z,10.40
2023-02-16T23:54:11.480Z,10.95
2023-02-16T23:56:40.960Z,11.63
2023-02-16T23:59:08.729Z,11.70
